Time;durP1;ratioP1;P1;durP2;ratioP2;P2;SDS_P1;SDS_P2;PMS_P1;PMS_P2;Temp;Humidity;BMP_temperature;BMP_pressure;BME280_temperature;BME280_humidity;BME280_pressure;Samples;Min_cycle;Max_cycle;Signal;HPM_P1;HPM_P2
2022/02/07 00:00:22;;;;;;;;;;;22.70;29.10;;;;;;5089357;28;20401;-68
2022/02/07 00:03:08;;;;;;;;;;;22.80;29.10;;;;;;5086025;28;20393;-68
2022/02/07 00:05:36;;;;;;;;;;;22.80;29.10;;;;;;5089047;28;19928;-68
2022/02/07 00:08:04;;;;;;;;;;;22.80;29.10;;;;;;5086158;28;20414;-68
2022/02/07 00:10:31;;;;;;;;;;;22.80;29.10;;;;;;5088799;28;20362;-68
2022/02/07 00:12:59;;;;;;;;;;;22.80;29.10;;;;;;5086575;28;20346;-68
2022/02/07 00:15:26;;;;;;;;;;;22.70;29.10;;;;;;5088806;28;19976;-68
2022/02/07 00:17:53;;;;;;;;;;;22.80;29.10;;;;;;5086161;28;20424;-68
2022/02/07 00:20:22;;;;;;;;;;;22.70;29.10;;;;;;5088577;28;20437;-68
2022/02/07 00:22:50;;;;;;;;;;;22.70;29.10;;;;;;5086344;28;19972;-66
2022/02/07 00:25:18;;;;;;;;;;;22.70;29.10;;;;;;5088824;28;19971;-67
2022/02/07 00:27:47;;;;;;;;;;;22.70;29.10;;;;;;5085840;28;19924;-67
2022/02/07 00:30:15;;;;;;;;;;;22.70;29.10;;;;;;5088640;28;19977;-67
2022/02/07 00:32:42;;;;;;;;;;;22.70;29.60;;;;;;5085607;28;20381;-67
2022/02/07 00:35:14;;;;;;;;;;;22.70;29.20;;;;;;5088943;28;19928;-67
2022/02/07 00:37:46;;;;;;;;;;;22.70;29.20;;;;;;5085858;28;19932;-67
2022/02/07 00:40:29;;;;;;;;;;;22.70;29.20;;;;;;5089125;28;20266;-67
2022/02/07 00:43:03;;;;;;;;;;;22.70;29.20;;;;;;5086051;28;19989;-67
2022/02/07 00:45:42;;;;;;;;;;;22.70;29.20;;;;;;5088555;28;20259;-67
2022/02/07 00:48:10;;;;;;;;;;;22.70;29.20;;;;;;5086099;28;19971;-67
2022/02/07 00:50:38;;;;;;;;;;;22.70;29.20;;;;;;5088086;28;19927;-67
2022/02/07 00:53:11;;;;;;;;;;;22.70;29.20;;;;;;5086496;28;20385;-67
2022/02/07 00:55:38;;;;;;;;;;;22.70;29.20;;;;;;5087371;28;19967;-68
2022/02/07 00:58:05;;;;;;;;;;;22.70;29.20;;;;;;5068357;28;19975;-67
2022/02/07 01:00:32;;;;;;;;;;;22.70;29.70;;;;;;5088495;28;19997;-67
2022/02/07 01:02:59;;;;;;;;;;;22.70;29.30;;;;;;5086147;28;19938;-67
2022/02/07 01:05:27;;;;;;;;;;;22.70;29.30;;;;;;5088701;28;20031;-67
2022/02/07 01:07:54;;;;;;;;;;;22.70;29.30;;;;;;5085425;28;19978;-67
2022/02/07 01:10:27;;;;;;;;;;;22.70;29.30;;;;;;5088601;28;19979;-67
2022/02/07 01:13:11;;;;;;;;;;;22.70;29.30;;;;;;5086043;28;19924;-67
2022/02/07 01:16:07;;;;;;;;;;;22.70;29.30;;;;;;5087915;28;20327;-68
2022/02/07 01:22:14;;;;;;;;;;;22.70;29.30;;;;;;5085952;28;19982;-67
2022/02/07 01:52:59;;;;;;;;;;;22.70;29.40;;;;;;5073117;28;20035;-68
2022/02/07 01:55:36;;;;;;;;;;;22.70;29.30;;;;;;5073614;28;19963;-67
2022/02/07 01:58:05;;;;;;;;;;;22.70;29.40;;;;;;5088862;28;19931;-67
2022/02/07 02:00:32;;;;;;;;;;;22.70;29.40;;;;;;5091533;28;19924;-68
2022/02/07 02:02:59;;;;;;;;;;;22.70;29.30;;;;;;5088515;28;19930;-67
2022/02/07 02:05:27;;;;;;;;;;;22.70;29.40;;;;;;5091188;28;20470;-67
2022/02/07 02:07:54;;;;;;;;;;;22.70;29.40;;;;;;5088388;28;20404;-67
2022/02/07 02:10:21;;;;;;;;;;;22.70;29.40;;;;;;5090725;28;20223;-67
2022/02/07 02:13:03;;;;;;;;;;;22.70;29.40;;;;;;5088154;28;20274;-67
2022/02/07 02:15:39;;;;;;;;;;;22.70;29.40;;;;;;5090744;28;20373;-67
2022/02/07 02:18:52;;;;;;;;;;;22.60;29.30;;;;;;5088126;28;19977;-67
2022/02/07 02:22:02;;;;;;;;;;;22.60;29.30;;;;;;5089601;28;19928;-67
2022/02/07 02:37:54;;;;;;;;;;;22.60;29.40;;;;;;5072709;28;20322;-68
2022/02/07 02:45:53;;;;;;;;;;;22.60;29.40;;;;;;5089995;28;19982;-68
2022/02/07 02:51:42;;;;;;;;;;;22.60;29.40;;;;;;5088530;28;19919;-68
2022/02/07 02:54:09;;;;;;;;;;;22.60;29.40;;;;;;5090057;28;19924;-68
2022/02/07 02:56:36;;;;;;;;;;;22.60;29.50;;;;;;5087365;28;19932;-68
2022/02/07 02:59:04;;;;;;;;;;;22.60;29.50;;;;;;5088973;28;19977;-68
2022/02/07 03:01:31;;;;;;;;;;;22.60;29.50;;;;;;5088464;28;20343;-68
2022/02/07 03:07:12;;;;;;;;;;;22.60;29.50;;;;;;5087371;28;20350;-67
2022/02/07 03:09:46;;;;;;;;;;;22.60;29.50;;;;;;5090008;28;20079;-67
2022/02/07 03:12:15;;;;;;;;;;;22.60;29.50;;;;;;5087606;28;20001;-67
2022/02/07 03:14:45;;;;;;;;;;;22.60;29.50;;;;;;5089939;28;20336;-67
2022/02/07 03:17:12;;;;;;;;;;;22.60;29.50;;;;;;5087042;28;19955;-67
2022/02/07 03:19:39;;;;;;;;;;;22.60;29.50;;;;;;5090100;28;19982;-67
2022/02/07 03:22:06;;;;;;;;;;;22.60;29.50;;;;;;5086749;28;20019;-68
2022/02/07 03:24:33;;;;;;;;;;;22.60;29.50;;;;;;5089308;28;19970;-67
2022/02/07 03:27:00;;;;;;;;;;;22.60;29.50;;;;;;5087782;28;19972;-67
2022/02/07 03:29:27;;;;;;;;;;;22.60;29.50;;;;;;5089494;28;19923;-67
2022/02/07 03:31:54;;;;;;;;;;;22.60;29.50;;;;;;5069165;28;20514;-67
2022/02/07 03:34:21;;;;;;;;;;;22.60;29.50;;;;;;5089545;28;20014;-67
2022/02/07 03:36:48;;;;;;;;;;;22.60;29.50;;;;;;5087165;28;20055;-68
2022/02/07 03:42:20;;;;;;;;;;;22.60;29.50;;;;;;5086660;28;20524;-68
2022/02/07 03:44:47;;;;;;;;;;;22.70;29.60;;;;;;5089595;28;20306;-67
2022/02/07 03:47:14;;;;;;;;;;;22.60;29.50;;;;;;5068380;28;20455;-67
2022/02/07 03:49:41;;;;;;;;;;;22.60;29.50;;;;;;5089237;28;20131;-67
2022/02/07 03:52:09;;;;;;;;;;;22.60;29.50;;;;;;5086547;28;19924;-68
2022/02/07 03:54:36;;;;;;;;;;;22.60;29.50;;;;;;5088987;28;20046;-67
2022/02/07 03:57:03;;;;;;;;;;;22.60;29.50;;;;;;5086129;28;20408;-67
2022/02/07 03:59:30;;;;;;;;;;;22.60;29.50;;;;;;5088649;28;20385;-67
2022/02/07 04:01:58;;;;;;;;;;;22.60;29.50;;;;;;5086849;28;20425;-67
2022/02/07 04:07:29;;;;;;;;;;;22.60;29.60;;;;;;5085249;28;19925;-67
2022/02/07 04:09:57;;;;;;;;;;;22.60;29.60;;;;;;5088994;28;20009;-67
2022/02/07 04:12:27;;;;;;;;;;;22.60;29.60;;;;;;5068776;28;20094;-67
2022/02/07 04:14:54;;;;;;;;;;;22.60;29.60;;;;;;5088999;28;20331;-67
2022/02/07 04:17:22;;;;;;;;;;;22.60;29.60;;;;;;5086189;28;20040;-67
2022/02/07 04:19:56;;;;;;;;;;;22.60;29.60;;;;;;5088633;28;19928;-67
2022/02/07 04:22:25;;;;;;;;;;;22.60;29.60;;;;;;5067892;28;19986;-67
2022/02/07 04:24:52;;;;;;;;;;;22.60;29.60;;;;;;5089483;28;20010;-67
2022/02/07 04:27:19;;;;;;;;;;;22.60;29.60;;;;;;5085833;28;20020;-67
2022/02/07 04:29:46;;;;;;;;;;;22.60;29.60;;;;;;5088521;28;19970;-68
2022/02/07 04:32:13;;;;;;;;;;;22.50;29.60;;;;;;5085639;28;19925;-67
2022/02/07 04:34:40;;;;;;;;;;;22.50;29.60;;;;;;5087341;28;20042;-67
2022/02/07 04:37:07;;;;;;;;;;;22.60;29.60;;;;;;5070345;28;20196;-67
2022/02/07 04:39:46;;;;;;;;;;;22.60;29.70;;;;;;5088800;28;19975;-67
2022/02/07 04:42:13;;;;;;;;;;;22.60;29.70;;;;;;5085475;28;20093;-67
2022/02/07 04:44:52;;;;;;;;;;;22.50;29.60;;;;;;5088650;28;19968;-67
2022/02/07 04:47:40;;;;;;;;;;;22.50;29.70;;;;;;5085701;28;19932;-67
2022/02/07 04:50:29;;;;;;;;;;;22.50;29.70;;;;;;5088709;28;19924;-67
2022/02/07 04:56:14;;;;;;;;;;;22.50;29.70;;;;;;5082591;28;19960;-67
2022/02/07 04:58:53;;;;;;;;;;;22.50;29.70;;;;;;5082339;28;19993;-67
2022/02/07 05:01:33;;;;;;;;;;;22.50;29.70;;;;;;5086794;28;20100;-68
2022/02/07 05:04:07;;;;;;;;;;;22.50;29.70;;;;;;5087267;28;20377;-67
2022/02/07 05:14:55;;;;;;;;;;;22.50;29.70;;;;;;5088672;28;19924;-67
2022/02/07 05:17:22;;;;;;;;;;;22.50;29.70;;;;;;5088346;28;20285;-67
2022/02/07 05:19:49;;;;;;;;;;;22.50;29.70;;;;;;5090561;28;19971;-67
2022/02/07 05:22:17;;;;;;;;;;;22.50;29.70;;;;;;5088830;28;19924;-69
2022/02/07 05:24:44;;;;;;;;;;;22.50;29.70;;;;;;5089107;28;19970;-67
2022/02/07 05:27:11;;;;;;;;;;;22.50;30.10;;;;;;5088241;28;19924;-67
2022/02/07 05:29:38;;;;;;;;;;;22.50;29.70;;;;;;5092501;28;19951;-67
2022/02/07 05:32:05;;;;;;;;;;;22.60;29.80;;;;;;5088320;28;19935;-67
2022/02/07 05:34:47;;;;;;;;;;;22.50;29.70;;;;;;5090822;28;19975;-67
2022/02/07 05:37:16;;;;;;;;;;;22.60;29.70;;;;;;5088592;28;20368;-66
2022/02/07 05:39:45;;;;;;;;;;;22.60;29.70;;;;;;5089921;28;19974;-67
2022/02/07 05:42:12;;;;;;;;;;;22.60;29.70;;;;;;5085983;28;19939;-67
2022/02/07 05:44:44;;;;;;;;;;;22.60;29.70;;;;;;5072612;28;19975;-67
2022/02/07 05:47:11;;;;;;;;;;;22.60;29.70;;;;;;5087439;28;20376;-67
2022/02/07 05:49:38;;;;;;;;;;;22.60;29.70;;;;;;5091296;28;20087;-68
2022/02/07 05:52:05;;;;;;;;;;;22.60;29.70;;;;;;5087702;28;20376;-67
2022/02/07 05:54:32;;;;;;;;;;;22.60;29.70;;;;;;5090520;28;19924;-67
2022/02/07 05:56:59;;;;;;;;;;;22.60;29.80;;;;;;5088101;28;20011;-67
2022/02/07 05:59:26;;;;;;;;;;;22.50;29.70;;;;;;5090877;28;19975;-68
2022/02/07 06:01:53;;;;;;;;;;;22.50;29.70;;;;;;5085369;28;19978;-67
2022/02/07 06:04:20;;;;;;;;;;;22.50;29.70;;;;;;5089797;28;19979;-68
2022/02/07 06:06:47;;;;;;;;;;;22.50;29.80;;;;;;5087612;28;19961;-67
2022/02/07 06:12:19;;;;;;;;;;;22.50;30.00;;;;;;5081858;28;19924;-68
2022/02/07 06:14:45;;;;;;;;;;;22.50;30.00;;;;;;5090142;28;19925;-68
2022/02/07 06:17:12;;;;;;;;;;;22.50;30.10;;;;;;5082112;28;19967;-72
2022/02/07 06:19:39;;;;;;;;;;;22.50;30.40;;;;;;5086820;28;19928;-69
2022/02/07 06:22:07;;;;;;;;;;;22.50;31.00;;;;;;5081754;28;19924;-67
2022/02/07 06:24:34;;;;;;;;;;;22.50;31.20;;;;;;5090097;28;20366;-67
2022/02/07 06:32:58;;;;;;;;;;;22.60;31.60;;;;;;5081942;28;20286;-68
2022/02/07 06:35:25;;;;;;;;;;;22.70;31.60;;;;;;5091345;28;19924;-63
2022/02/07 06:37:52;;;;;;;;;;;22.70;31.70;;;;;;5075696;28;19939;-63
2022/02/07 06:40:20;;;;;;;;;;;22.80;32.70;;;;;;5087792;28;19935;-64
2022/02/07 06:42:47;;;;;;;;;;;22.80;33.50;;;;;;5086739;28;19932;-63
2022/02/07 06:45:14;;;;;;;;;;;22.90;33.50;;;;;;5088590;28;19928;-65
2022/02/07 06:47:42;;;;;;;;;;;22.90;32.90;;;;;;5072492;28;19974;-64
2022/02/07 06:50:09;;;;;;;;;;;22.90;32.50;;;;;;5089405;28;19931;-62
2022/02/07 06:52:36;;;;;;;;;;;23.00;32.20;;;;;;5084299;28;19928;-63
2022/02/07 06:55:04;;;;;;;;;;;23.00;32.10;;;;;;5090237;28;19924;-63
2022/02/07 06:57:31;;;;;;;;;;;23.10;32.40;;;;;;5090594;28;19935;-63
2022/02/07 07:00:02;;;;;;;;;;;23.10;32.20;;;;;;5091165;28;20470;-64
2022/02/07 07:02:29;;;;;;;;;;;23.20;32.10;;;;;;5064157;28;19969;-64
2022/02/07 07:04:58;;;;;;;;;;;23.20;32.30;;;;;;5086899;28;19924;-64
2022/02/07 07:07:25;;;;;;;;;;;23.30;32.40;;;;;;5089517;28;19928;-64
2022/02/07 07:09:54;;;;;;;;;;;23.30;32.40;;;;;;5089974;28;19924;-63
2022/02/07 07:12:21;;;;;;;;;;;23.40;32.50;;;;;;5068577;28;20377;-63
2022/02/07 07:14:52;;;;;;;;;;;23.40;32.50;;;;;;5087293;28;19928;-62
2022/02/07 07:17:19;;;;;;;;;;;23.50;32.40;;;;;;5086258;28;20019;-64
2022/02/07 07:19:46;;;;;;;;;;;23.50;32.20;;;;;;5085164;28;20383;-67
2022/02/07 07:22:14;;;;;;;;;;;23.50;32.20;;;;;;5079044;28;19944;-65
2022/02/07 07:24:42;;;;;;;;;;;23.60;32.20;;;;;;5085598;28;19985;-63
2022/02/07 07:27:12;;;;;;;;;;;23.60;32.20;;;;;;5086697;28;19923;-64
2022/02/07 07:29:43;;;;;;;;;;;23.60;32.40;;;;;;5085242;28;19981;-62
2022/02/07 07:32:11;;;;;;;;;;;23.60;32.60;;;;;;5082001;28;19923;-64
2022/02/07 07:34:38;;;;;;;;;;;23.60;32.80;;;;;;5099739;28;19928;-62
2022/02/07 07:37:05;;;;;;;;;;;23.60;33.00;;;;;;5110335;28;19976;-66
2022/02/07 07:39:34;;;;;;;;;;;23.70;33.20;;;;;;5109792;28;19928;-63
2022/02/07 07:42:03;;;;;;;;;;;23.70;33.50;;;;;;5101813;28;19932;-64
2022/02/07 07:44:34;;;;;;;;;;;23.70;33.50;;;;;;5085920;28;20330;-62
2022/02/07 07:47:09;;;;;;;;;;;23.70;33.60;;;;;;5089070;28;19924;-66
2022/02/07 07:49:48;;;;;;;;;;;23.70;33.60;;;;;;5089646;28;19924;-63
2022/02/07 07:52:19;;;;;;;;;;;23.70;33.80;;;;;;5088862;28;19924;-62
2022/02/07 07:54:54;;;;;;;;;;;23.80;34.00;;;;;;5087483;28;20095;-62
2022/02/07 08:02:56;;;;;;;;;;;23.90;34.00;;;;;;5086079;28;21396;-64
2022/02/07 08:08:23;;;;;;;;;;;23.90;33.80;;;;;;5067878;28;19925;-62
2022/02/07 08:11:02;;;;;;;;;;;23.90;33.80;;;;;;5068272;28;21323;-62
2022/02/07 08:13:31;;;;;;;;;;;23.90;33.70;;;;;;5074238;28;19924;-61
2022/02/07 08:15:58;;;;;;;;;;;23.90;33.80;;;;;;5089548;28;20438;-63
2022/02/07 08:18:26;;;;;;;;;;;23.90;33.80;;;;;;5088427;28;20373;-63
2022/02/07 08:20:53;;;;;;;;;;;23.90;33.80;;;;;;5070474;28;20373;-62
2022/02/07 08:23:20;;;;;;;;;;;23.90;33.80;;;;;;5089024;28;19924;-64
2022/02/07 08:25:48;;;;;;;;;;;23.90;33.70;;;;;;5084820;28;20285;-63
2022/02/07 08:28:35;;;;;;;;;;;23.90;33.60;;;;;;5083232;28;20011;-63
2022/02/07 08:31:02;;;;;;;;;;;23.90;33.60;;;;;;5071293;28;19927;-63
2022/02/07 08:37:02;;;;;;;;;;;23.90;33.50;;;;;;5077072;28;20303;-62
2022/02/07 08:39:29;;;;;;;;;;;24.00;33.50;;;;;;5085400;28;19927;-62
2022/02/07 08:41:56;;;;;;;;;;;24.00;33.40;;;;;;5089155;28;19928;-62
2022/02/07 08:44:26;;;;;;;;;;;23.90;33.50;;;;;;5084125;28;19924;-62
2022/02/07 08:46:54;;;;;;;;;;;24.00;33.50;;;;;;5082807;28;20599;-62
2022/02/07 08:52:48;;;;;;;;;;;24.00;33.50;;;;;;5088334;28;19963;-61
2022/02/07 08:55:24;;;;;;;;;;;24.10;33.50;;;;;;5092075;28;20331;-62
2022/02/07 08:58:03;;;;;;;;;;;24.10;33.40;;;;;;5084583;28;19997;-62
2022/02/07 09:00:46;;;;;;;;;;;24.20;33.40;;;;;;5092360;28;19932;-61
2022/02/07 09:03:26;;;;;;;;;;;24.20;33.30;;;;;;5092854;28;19924;-61
2022/02/07 09:06:08;;;;;;;;;;;24.30;33.30;;;;;;5090309;28;19931;-65
2022/02/07 09:11:23;;;;;;;;;;;24.30;33.30;;;;;;5077519;28;19986;-62
2022/02/07 09:13:50;;;;;;;;;;;24.30;33.20;;;;;;5093203;28;19967;-62
2022/02/07 09:16:29;;;;;;;;;;;24.40;33.20;;;;;;5092275;28;19924;-60
2022/02/07 09:18:59;;;;;;;;;;;24.40;33.20;;;;;;5086141;28;19932;-61
2022/02/07 09:21:28;;;;;;;;;;;24.40;33.10;;;;;;5083025;28;19935;-61
2022/02/07 09:27:09;;;;;;;;;;;24.50;32.80;;;;;;5079569;28;20041;-61
2022/02/07 09:29:36;;;;;;;;;;;24.40;32.60;;;;;;5083933;28;20377;-61
2022/02/07 09:32:04;;;;;;;;;;;24.40;32.40;;;;;;5086554;28;19932;-64
2022/02/07 09:34:32;;;;;;;;;;;24.40;32.40;;;;;;5089313;28;19933;-60
2022/02/07 09:37:00;;;;;;;;;;;24.40;32.30;;;;;;5086400;28;19982;-60
2022/02/07 09:39:30;;;;;;;;;;;24.50;32.20;;;;;;5087898;28;19977;-61
2022/02/07 09:41:58;;;;;;;;;;;24.50;32.20;;;;;;5082915;28;20297;-63
2022/02/07 09:44:29;;;;;;;;;;;24.50;32.00;;;;;;5072109;28;19975;-64
2022/02/07 09:46:56;;;;;;;;;;;24.50;31.80;;;;;;5069772;28;20120;-62
2022/02/07 09:49:25;;;;;;;;;;;24.60;31.60;;;;;;5071828;28;19970;-62
2022/02/07 09:51:53;;;;;;;;;;;24.60;31.50;;;;;;5064893;28;19924;-62
2022/02/07 09:54:21;;;;;;;;;;;24.60;31.40;;;;;;5075718;28;20992;-62
2022/02/07 09:56:50;;;;;;;;;;;24.60;31.30;;;;;;5083348;28;19932;-62
2022/02/07 09:59:18;;;;;;;;;;;24.60;31.10;;;;;;5086680;28;19924;-63
2022/02/07 10:01:47;;;;;;;;;;;24.60;30.90;;;;;;5083389;28;19932;-60
2022/02/07 10:04:29;;;;;;;;;;;24.60;30.80;;;;;;5085428;28;19970;-60
2022/02/07 10:07:12;;;;;;;;;;;24.60;30.80;;;;;;5082552;28;19952;-60
2022/02/07 10:10:02;;;;;;;;;;;24.60;30.80;;;;;;5085655;28;19997;-63
2022/02/07 10:15:26;;;;;;;;;;;24.70;30.70;;;;;;5087676;28;19928;-61
2022/02/07 10:18:06;;;;;;;;;;;24.70;30.50;;;;;;5083401;28;19985;-61
2022/02/07 10:38:08;;;;;;;;;;;24.80;30.00;;;;;;5068713;28;20161;-60
2022/02/07 10:40:54;;;;;;;;;;;24.90;30.00;;;;;;5070010;28;19924;-61
2022/02/07 10:43:58;;;;;;;;;;;24.90;29.90;;;;;;5083548;28;20468;-61
2022/02/07 10:46:32;;;;;;;;;;;24.90;30.00;;;;;;5085480;28;19939;-62
2022/02/07 10:49:05;;;;;;;;;;;25.00;29.80;;;;;;5085642;28;20155;-61
2022/02/07 10:51:33;;;;;;;;;;;25.00;29.90;;;;;;5088667;28;19931;-61
2022/02/07 10:54:03;;;;;;;;;;;25.00;29.70;;;;;;5075230;28;19978;-61
2022/02/07 10:56:41;;;;;;;;;;;25.00;29.60;;;;;;5076721;28;20454;-60
2022/02/07 10:59:10;;;;;;;;;;;25.00;29.50;;;;;;5073658;28;19928;-61
2022/02/07 11:04:37;;;;;;;;;;;25.00;29.50;;;;;;5096097;28;19924;-60
2022/02/07 11:07:04;;;;;;;;;;;25.00;29.50;;;;;;5086911;28;19928;-62
2022/02/07 11:09:39;;;;;;;;;;;25.00;29.20;;;;;;5086370;28;19932;-62
2022/02/07 11:12:18;;;;;;;;;;;24.90;29.20;;;;;;5090171;28;19927;-62
2022/02/07 11:14:55;;;;;;;;;;;24.90;29.30;;;;;;5090969;28;19993;-62
2022/02/07 11:20:44;;;;;;;;;;;24.90;28.80;;;;;;5069969;28;19931;-62
2022/02/07 11:23:38;;;;;;;;;;;24.90;28.60;;;;;;5070386;28;19970;-61
2022/02/07 11:26:13;;;;;;;;;;;24.90;28.60;;;;;;5054575;28;19932;-63
2022/02/07 11:28:42;;;;;;;;;;;24.80;28.40;;;;;;5082673;28;19924;-62
2022/02/07 11:31:12;;;;;;;;;;;24.80;28.40;;;;;;5090098;28;19930;-59
2022/02/07 11:33:53;;;;;;;;;;;24.80;28.20;;;;;;5090232;28;19931;-60
2022/02/07 11:36:28;;;;;;;;;;;24.80;28.10;;;;;;5089636;28;19924;-61
2022/02/07 11:39:00;;;;;;;;;;;24.70;28.10;;;;;;5101561;28;20429;-60
2022/02/07 11:41:27;;;;;;;;;;;24.70;28.00;;;;;;5089336;28;19924;-60
2022/02/07 11:43:54;;;;;;;;;;;24.70;28.00;;;;;;5089950;28;19928;-59
2022/02/07 11:46:22;;;;;;;;;;;24.70;28.00;;;;;;5089907;28;19924;-61
2022/02/07 11:48:50;;;;;;;;;;;24.70;28.00;;;;;;5082573;28;19932;-61
2022/02/07 11:51:19;;;;;;;;;;;24.60;28.00;;;;;;5089549;28;20393;-62
2022/02/07 11:53:57;;;;;;;;;;;24.60;27.90;;;;;;5089733;28;19928;-62
2022/02/07 11:56:36;;;;;;;;;;;24.50;28.00;;;;;;5071802;28;20157;-58
2022/02/07 11:59:28;;;;;;;;;;;24.60;28.10;;;;;;5100256;28;19928;-60
2022/02/07 12:01:59;;;;;;;;;;;24.50;28.10;;;;;;5089952;28;20339;-60
2022/02/07 12:04:43;;;;;;;;;;;24.50;28.10;;;;;;5089864;28;19930;-60
2022/02/07 12:07:20;;;;;;;;;;;24.50;28.30;;;;;;5089242;28;20423;-59
2022/02/07 12:10:05;;;;;;;;;;;24.50;28.40;;;;;;5089475;28;19932;-59
2022/02/07 12:12:46;;;;;;;;;;;24.50;28.50;;;;;;5089945;28;19924;-60
2022/02/07 12:15:45;;;;;;;;;;;24.50;28.50;;;;;;5089803;28;19924;-60
2022/02/07 12:18:20;;;;;;;;;;;24.50;28.50;;;;;;5090304;28;19924;-58
2022/02/07 12:20:51;;;;;;;;;;;24.50;28.40;;;;;;5089639;28;20365;-59
2022/02/07 12:23:19;;;;;;;;;;;24.50;28.40;;;;;;5087212;28;19924;-60
2022/02/07 12:25:58;;;;;;;;;;;24.60;28.50;;;;;;5082496;28;19924;-61
2022/02/07 12:28:32;;;;;;;;;;;24.60;28.40;;;;;;5084885;28;19928;-59
2022/02/07 12:31:19;;;;;;;;;;;24.60;28.30;;;;;;5083458;28;19981;-59
2022/02/07 12:33:54;;;;;;;;;;;24.50;28.30;;;;;;5078820;28;19936;-62
2022/02/07 12:36:23;;;;;;;;;;;24.50;28.30;;;;;;5095821;28;19928;-59
2022/02/07 12:38:50;;;;;;;;;;;24.50;28.40;;;;;;5082485;28;20407;-62
2022/02/07 12:41:17;;;;;;;;;;;24.50;28.50;;;;;;5085303;28;19977;-61
2022/02/07 12:43:45;;;;;;;;;;;24.60;28.40;;;;;;5082983;28;19932;-60
2022/02/07 12:46:14;;;;;;;;;;;24.60;28.30;;;;;;5089284;28;19931;-61
2022/02/07 12:48:56;;;;;;;;;;;24.60;28.30;;;;;;5085684;28;19950;-61
2022/02/07 12:54:57;;;;;;;;;;;24.70;28.10;;;;;;5086036;28;19930;-59
2022/02/07 12:57:26;;;;;;;;;;;24.60;27.90;;;;;;5086448;28;19977;-62
2022/02/07 12:59:54;;;;;;;;;;;24.60;27.80;;;;;;5087209;28;19924;-62
2022/02/07 13:02:28;;;;;;;;;;;24.60;27.70;;;;;;5088560;28;20066;-59
2022/02/07 13:04:55;;;;;;;;;;;24.50;27.50;;;;;;5088583;28;19932;-61
2022/02/07 13:07:24;;;;;;;;;;;24.50;27.40;;;;;;5086075;28;19981;-60
2022/02/07 13:09:56;;;;;;;;;;;24.50;27.30;;;;;;5085522;28;19949;-60
2022/02/07 13:12:49;;;;;;;;;;;24.40;27.20;;;;;;5089060;28;19924;-60
2022/02/07 13:15:17;;;;;;;;;;;24.40;27.30;;;;;;5088211;28;19999;-61
2022/02/07 13:17:50;;;;;;;;;;;24.30;27.10;;;;;;5066820;28;20438;-63
2022/02/07 13:20:18;;;;;;;;;;;24.30;27.10;;;;;;5088762;28;19977;-61
2022/02/07 13:22:46;;;;;;;;;;;24.30;27.30;;;;;;5089264;28;19925;-63
2022/02/07 13:25:13;;;;;;;;;;;24.30;27.30;;;;;;5087508;28;19928;-62
2022/02/07 13:27:40;;;;;;;;;;;24.20;27.20;;;;;;5068050;28;20727;-62
2022/02/07 13:30:09;;;;;;;;;;;24.20;27.20;;;;;;5087978;28;19924;-61
2022/02/07 13:32:36;;;;;;;;;;;24.10;27.20;;;;;;5089482;28;19924;-63
2022/02/07 13:35:06;;;;;;;;;;;24.10;27.30;;;;;;5087532;28;19924;-62
2022/02/07 13:37:36;;;;;;;;;;;24.10;27.40;;;;;;5066317;28;20027;-61
2022/02/07 13:40:06;;;;;;;;;;;24.10;27.50;;;;;;5088881;28;19977;-63
2022/02/07 13:42:39;;;;;;;;;;;24.10;27.50;;;;;;5093314;28;19970;-64
2022/02/07 13:45:08;;;;;;;;;;;24.20;27.80;;;;;;5092429;28;19924;-62
2022/02/07 13:47:37;;;;;;;;;;;24.20;27.90;;;;;;5091391;28;19971;-61
2022/02/07 13:50:09;;;;;;;;;;;24.20;27.70;;;;;;5090552;28;19971;-62
2022/02/07 13:52:41;;;;;;;;;;;24.30;27.60;;;;;;5090092;28;20331;-61
2022/02/07 13:55:20;;;;;;;;;;;24.30;27.60;;;;;;5092531;28;20037;-61
2022/02/07 13:57:49;;;;;;;;;;;24.30;27.60;;;;;;5092262;28;19924;-62
2022/02/07 14:00:17;;;;;;;;;;;24.30;27.60;;;;;;5082295;28;19928;-60
2022/02/07 14:02:44;;;;;;;;;;;24.30;27.50;;;;;;5082042;28;19924;-62
2022/02/07 14:05:13;;;;;;;;;;;24.30;27.50;;;;;;5063552;28;19931;-61
2022/02/07 14:07:55;;;;;;;;;;;24.30;27.50;;;;;;5076254;28;19962;-62
2022/02/07 14:10:22;;;;;;;;;;;24.30;27.40;;;;;;5081815;28;19989;-59
2022/02/07 14:12:52;;;;;;;;;;;24.20;27.50;;;;;;5081251;28;20351;-64
2022/02/07 14:15:19;;;;;;;;;;;24.20;27.70;;;;;;5080036;28;19929;-61
2022/02/07 14:17:47;;;;;;;;;;;24.10;28.00;;;;;;5080445;28;19970;-61
2022/02/07 14:20:19;;;;;;;;;;;24.10;28.00;;;;;;5082895;28;19924;-62
2022/02/07 14:22:46;;;;;;;;;;;24.00;27.90;;;;;;5081508;28;19931;-61
2022/02/07 14:25:14;;;;;;;;;;;24.00;28.10;;;;;;5083227;28;20438;-63
2022/02/07 14:27:42;;;;;;;;;;;24.10;28.30;;;;;;5083792;28;20381;-63
2022/02/07 14:30:10;;;;;;;;;;;24.10;28.40;;;;;;5084385;28;20334;-62
2022/02/07 14:32:37;;;;;;;;;;;24.10;28.40;;;;;;5081830;28;19932;-63
2022/02/07 14:35:04;;;;;;;;;;;24.10;28.40;;;;;;5086307;28;20438;-62
2022/02/07 14:37:31;;;;;;;;;;;24.10;28.40;;;;;;5085375;28;19928;-66
2022/02/07 14:39:58;;;;;;;;;;;24.20;28.40;;;;;;5089875;28;20312;-61
2022/02/07 14:42:25;;;;;;;;;;;24.20;28.40;;;;;;5091658;28;19924;-63
2022/02/07 14:45:10;;;;;;;;;;;24.20;28.40;;;;;;5085545;28;20343;-62
2022/02/07 14:47:50;;;;;;;;;;;24.30;28.50;;;;;;5082696;28;19992;-67
2022/02/07 14:50:19;;;;;;;;;;;24.30;28.50;;;;;;5081478;28;19932;-67
2022/02/07 14:52:46;;;;;;;;;;;24.30;28.60;;;;;;5079617;28;19924;-65
2022/02/07 14:55:14;;;;;;;;;;;24.30;28.70;;;;;;5076078;28;20393;-61
2022/02/07 14:57:41;;;;;;;;;;;24.30;28.90;;;;;;5079921;28;19939;-61
2022/02/07 15:00:10;;;;;;;;;;;24.30;28.90;;;;;;5085226;28;20004;-59
2022/02/07 15:02:37;;;;;;;;;;;24.30;29.00;;;;;;5082738;28;19925;-61
2022/02/07 15:05:06;;;;;;;;;;;24.30;28.90;;;;;;5082126;28;19924;-62
2022/02/07 15:07:33;;;;;;;;;;;24.30;28.90;;;;;;5077301;28;20036;-62
2022/02/07 15:10:01;;;;;;;;;;;24.40;28.90;;;;;;5087887;28;19928;-63
2022/02/07 15:12:28;;;;;;;;;;;24.30;28.80;;;;;;5084175;28;20638;-61
2022/02/07 15:14:56;;;;;;;;;;;24.30;28.70;;;;;;5088521;28;19924;-66
2022/02/07 15:17:28;;;;;;;;;;;24.30;28.80;;;;;;5080805;28;20339;-65
2022/02/07 15:19:55;;;;;;;;;;;24.30;28.80;;;;;;5087411;28;19946;-63
2022/02/07 15:22:22;;;;;;;;;;;24.30;28.90;;;;;;5085836;28;19979;-64
2022/02/07 15:24:49;;;;;;;;;;;24.30;28.90;;;;;;5084623;28;19928;-62
2022/02/07 15:27:18;;;;;;;;;;;24.20;28.90;;;;;;5079560;28;19927;-61
2022/02/07 15:29:45;;;;;;;;;;;24.20;29.00;;;;;;5087488;28;20393;-60
2022/02/07 15:32:23;;;;;;;;;;;24.20;29.10;;;;;;5086839;28;20414;-61
2022/02/07 15:34:52;;;;;;;;;;;24.20;29.20;;;;;;5088696;28;19985;-61
2022/02/07 15:37:19;;;;;;;;;;;24.20;29.20;;;;;;5084028;28;19958;-59
2022/02/07 15:39:46;;;;;;;;;;;24.20;29.20;;;;;;5088544;28;19950;-62
2022/02/07 15:42:14;;;;;;;;;;;24.20;29.20;;;;;;5071880;28;19952;-61
2022/02/07 15:44:41;;;;;;;;;;;24.10;29.20;;;;;;5089404;28;19993;-61
2022/02/07 15:47:08;;;;;;;;;;;24.10;29.20;;;;;;5085161;28;19975;-61
2022/02/07 15:56:52;;;;;;;;;;;24.00;29.20;;;;;;5095034;28;20004;-62
2022/02/07 15:59:19;;;;;;;;;;;24.00;29.30;;;;;;5084534;28;19924;-61
2022/02/07 16:01:48;;;;;;;;;;;23.90;29.20;;;;;;5079812;28;19970;-61
2022/02/07 16:04:15;;;;;;;;;;;23.90;29.10;;;;;;5086409;28;19927;-61
2022/02/07 16:06:43;;;;;;;;;;;23.80;29.00;;;;;;5091370;28;19966;-61
2022/02/07 16:12:46;;;;;;;;;;;23.70;29.00;;;;;;5109771;28;20334;-61
2022/02/07 16:15:15;;;;;;;;;;;23.70;29.10;;;;;;5071886;28;19924;-61
2022/02/07 16:17:42;;;;;;;;;;;23.60;29.10;;;;;;5090848;28;19973;-60
2022/02/07 16:20:10;;;;;;;;;;;23.60;29.10;;;;;;5073331;28;19928;-63
2022/02/07 16:22:37;;;;;;;;;;;23.50;29.20;;;;;;5087970;28;19928;-63
2022/02/07 16:25:04;;;;;;;;;;;23.50;29.30;;;;;;5083890;28;20104;-61
2022/02/07 16:27:31;;;;;;;;;;;23.50;29.30;;;;;;5078739;28;19975;-62
2022/02/07 16:29:58;;;;;;;;;;;23.40;29.30;;;;;;5088437;28;19985;-63
2022/02/07 16:32:25;;;;;;;;;;;23.40;29.20;;;;;;5084379;28;19950;-65
2022/02/07 16:34:52;;;;;;;;;;;23.40;29.20;;;;;;5089072;28;19924;-63
2022/02/07 16:37:19;;;;;;;;;;;23.40;29.20;;;;;;5092618;28;20422;-63
2022/02/07 16:39:46;;;;;;;;;;;23.40;29.20;;;;;;5084176;28;19954;-63
2022/02/07 16:42:14;;;;;;;;;;;23.30;29.10;;;;;;5085671;28;19954;-63
2022/02/07 16:44:49;;;;;;;;;;;23.30;29.10;;;;;;5088136;28;20288;-62
2022/02/07 16:47:17;;;;;;;;;;;23.30;29.20;;;;;;5081677;28;19924;-62
2022/02/07 16:49:46;;;;;;;;;;;23.30;29.10;;;;;;5083721;28;20442;-62
2022/02/07 16:52:13;;;;;;;;;;;23.20;29.00;;;;;;5085565;28;19978;-62
2022/02/07 16:54:40;;;;;;;;;;;23.20;29.00;;;;;;5088566;28;19924;-62
2022/02/07 16:57:08;;;;;;;;;;;23.20;29.20;;;;;;5085609;28;19924;-62
2022/02/07 16:59:35;;;;;;;;;;;23.20;29.30;;;;;;5070119;28;19997;-62
2022/02/07 17:02:03;;;;;;;;;;;23.20;29.50;;;;;;5084424;28;19974;-62